createdAt,value
2019-01-15T00:01:45.560Z,94970.30
2019-01-15T00:04:14.848Z,94960.63
2019-01-15T00:06:43.892Z,94967.49
2019-01-15T00:09:12.487Z,94972.65
2019-01-15T00:11:41.076Z,94967.51
2019-01-15T00:14:10.106Z,94973.41
2019-01-15T00:16:38.703Z,94973.31
2019-01-15T00:19:07.264Z,94988.92
2019-01-15T00:21:35.833Z,94987.00
2019-01-15T00:24:04.470Z,94985.81
2019-01-15T00:26:33.410Z,94983.40
2019-01-15T00:29:02.014Z,94993.19
2019-01-15T00:31:49.893Z,94983.48
2019-01-15T00:34:18.438Z,94983.73
2019-01-15T00:36:47.538Z,94993.31
2019-01-15T00:39:16.120Z,94984.59
2019-01-15T00:41:44.690Z,94995.83
2019-01-15T00:44:13.304Z,94999.84
2019-01-15T00:46:41.913Z,95001.09
2019-01-15T00:49:10.547Z,95004.72
2019-01-15T00:54:26.988Z,95006.34
2019-01-15T00:56:55.538Z,94997.30
2019-01-15T00:59:24.199Z,94996.90
2019-01-15T01:04:40.457Z,94995.20
2019-01-15T01:07:09.259Z,95000.48
2019-01-15T01:09:38.003Z,94996.64
2019-01-15T01:12:06.877Z,94991.83
2019-01-15T01:14:35.523Z,94993.42
2019-01-15T01:17:04.509Z,94990.64
2019-01-15T01:22:20.798Z,94997.28
2019-01-15T01:24:49.371Z,94993.30
2019-01-15T01:27:17.960Z,95003.06
2019-01-15T01:29:46.522Z,95009.09
2019-01-15T01:32:15.169Z,95015.92
2019-01-15T01:34:43.710Z,95016.73
2019-01-15T01:37:12.286Z,95024.48
2019-01-15T01:39:40.903Z,95011.35
2019-01-15T01:42:09.585Z,95025.16
2019-01-15T01:44:38.131Z,95020.44
2019-01-15T01:47:06.677Z,95012.34
2019-01-15T01:52:10.026Z,95010.75
2019-01-15T01:54:38.621Z,95012.28
2019-01-15T01:57:07.431Z,95021.92
2019-01-15T01:59:35.998Z,95035.73
2019-01-15T02:02:04.980Z,95030.80
2019-01-15T02:04:33.570Z,95038.94
2019-01-15T02:07:02.139Z,95032.37
2019-01-15T02:09:31.286Z,95031.39
2019-01-15T02:12:00.161Z,95040.55
2019-01-15T02:14:28.980Z,95047.32
2019-01-15T02:16:57.818Z,95040.12
2019-01-15T02:19:26.632Z,95031.45
2019-01-15T02:21:55.215Z,95032.83
2019-01-15T02:24:24.107Z,95029.98
2019-01-15T02:26:52.679Z,95033.98
2019-01-15T02:29:21.235Z,95028.53
2019-01-15T02:31:49.822Z,95020.58
2019-01-15T02:34:18.387Z,95022.28
2019-01-15T02:36:47.180Z,95025.91
2019-01-15T02:39:15.793Z,95021.63
2019-01-15T02:44:51.538Z,95003.75
2019-01-15T02:47:21.102Z,95001.70
2019-01-15T02:52:23.798Z,95000.40
2019-01-15T02:54:52.382Z,94998.68
2019-01-15T02:57:21.214Z,94989.20
2019-01-15T02:59:49.766Z,94985.55
2019-01-15T03:02:18.347Z,94992.00
2019-01-15T03:04:47.223Z,95009.89
2019-01-15T03:07:15.799Z,95013.53
2019-01-15T03:09:44.912Z,95007.56
2019-01-15T03:12:13.480Z,95004.59
2019-01-15T03:14:42.311Z,95007.81
2019-01-15T03:17:10.980Z,95009.61
2019-01-15T03:19:58.958Z,95006.74
2019-01-15T03:22:27.816Z,95005.58
2019-01-15T03:28:24.097Z,95002.69
2019-01-15T03:30:52.664Z,94996.83
2019-01-15T03:33:21.362Z,95005.97
2019-01-15T03:38:39.194Z,95004.19
2019-01-15T03:41:08.009Z,95000.88
2019-01-15T03:43:36.690Z,94996.06
2019-01-15T03:46:05.561Z,94994.22
2019-01-15T03:48:34.119Z,94993.98
2019-01-15T03:51:02.669Z,95000.67
2019-01-15T03:53:31.248Z,95005.06
2019-01-15T03:55:59.826Z,95006.74
2019-01-15T03:58:28.426Z,95005.08
2019-01-15T04:00:57.012Z,95004.30
2019-01-15T04:03:25.565Z,95003.75
2019-01-15T04:05:54.170Z,94998.42
2019-01-15T04:08:22.729Z,94997.64
2019-01-15T04:10:51.329Z,95004.12
2019-01-15T04:13:21.764Z,95006.64
2019-01-15T04:15:50.166Z,95002.29
2019-01-15T04:18:18.727Z,95015.70
2019-01-15T04:20:47.295Z,95010.86
2019-01-15T04:23:15.880Z,95019.01
2019-01-15T04:25:44.666Z,95018.22
2019-01-15T04:28:32.474Z,95014.47
2019-01-15T04:31:20.526Z,95008.92
2019-01-15T04:33:49.099Z,95007.88
2019-01-15T04:36:17.655Z,95004.19
2019-01-15T04:38:46.232Z,94997.11
2019-01-15T04:41:14.791Z,94994.13
2019-01-15T04:43:43.621Z,95005.56
2019-01-15T04:48:59.815Z,94999.34
2019-01-15T04:54:16.346Z,95003.05
2019-01-15T04:56:46.944Z,94996.34
2019-01-15T04:59:15.577Z,94999.13
2019-01-15T05:01:44.368Z,95001.27
2019-01-15T05:04:12.940Z,94996.29
2019-01-15T05:06:41.789Z,94998.03
2019-01-15T05:09:10.765Z,94994.20
2019-01-15T05:11:39.364Z,94992.05
2019-01-15T05:14:08.226Z,94985.41
2019-01-15T05:16:36.806Z,94983.78
2019-01-15T05:19:05.459Z,94983.38
2019-01-15T05:21:34.271Z,94980.13
2019-01-15T05:24:22.092Z,94980.09
2019-01-15T05:26:50.717Z,94974.34
2019-01-15T05:29:19.353Z,94978.91
2019-01-15T05:31:51.752Z,94974.44
2019-01-15T05:34:20.338Z,94982.20
2019-01-15T05:36:49.074Z,94966.55
2019-01-15T05:39:17.896Z,94964.41
2019-01-15T05:41:46.529Z,94956.84
2019-01-15T05:44:15.608Z,94960.65
2019-01-15T05:46:44.190Z,94963.05
2019-01-15T05:49:12.825Z,94956.42
2019-01-15T05:51:42.477Z,94956.65
2019-01-15T05:54:11.071Z,94956.55
2019-01-15T05:56:39.768Z,94951.98
2019-01-15T05:59:48.187Z,94952.03
2019-01-15T06:04:51.343Z,94951.41
2019-01-15T06:07:20.079Z,94949.25
2019-01-15T06:09:48.776Z,94950.59
2019-01-15T06:12:17.631Z,94951.03
2019-01-15T06:14:46.203Z,94945.07
2019-01-15T06:17:14.835Z,94946.35
2019-01-15T06:19:43.633Z,94944.79
2019-01-15T06:22:12.261Z,94942.19
2019-01-15T06:24:41.119Z,94938.33
2019-01-15T06:27:09.697Z,94934.09
2019-01-15T06:29:38.257Z,94930.12
2019-01-15T06:32:07.093Z,94928.61
2019-01-15T06:34:36.038Z,94929.00
2019-01-15T06:37:04.700Z,94935.77
2019-01-15T06:39:33.836Z,94932.97
2019-01-15T06:42:02.504Z,94926.23
2019-01-15T06:44:31.118Z,94914.37
2019-01-15T06:46:59.681Z,94919.49
2019-01-15T06:49:28.272Z,94910.13
2019-01-15T06:51:56.846Z,94916.09
2019-01-15T06:54:25.436Z,94907.78
2019-01-15T06:56:54.004Z,94915.03
2019-01-15T06:59:22.564Z,94924.49
2019-01-15T07:01:51.466Z,94932.21
2019-01-15T07:04:20.285Z,94935.25
2019-01-15T07:06:48.865Z,94930.66
2019-01-15T07:09:17.739Z,94936.40
2019-01-15T07:11:46.311Z,94928.29
2019-01-15T07:14:14.877Z,94931.84
2019-01-15T07:16:43.457Z,94916.03
2019-01-15T07:19:12.013Z,94923.23
2019-01-15T07:21:40.759Z,94926.44
2019-01-15T07:24:09.725Z,94922.23
2019-01-15T07:26:38.317Z,94923.05
2019-01-15T07:29:06.968Z,94923.13
2019-01-15T07:31:35.547Z,94913.25
2019-01-15T07:34:04.202Z,94909.09
2019-01-15T07:36:32.783Z,94919.62
2019-01-15T07:39:01.423Z,94905.86
2019-01-15T07:41:30.032Z,94912.92
2019-01-15T07:44:04.357Z,94916.41
2019-01-15T07:46:48.209Z,94912.80
2019-01-15T07:49:36.161Z,94913.80
2019-01-15T07:52:04.829Z,94916.61
2019-01-15T07:54:33.657Z,94916.13
2019-01-15T07:57:02.236Z,94917.52
2019-01-15T07:59:30.828Z,94917.84
2019-01-15T08:01:59.879Z,94923.70
2019-01-15T08:04:28.468Z,94912.16
2019-01-15T08:06:57.047Z,94917.25
2019-01-15T08:09:25.634Z,94915.17
2019-01-15T08:11:54.442Z,94915.88
2019-01-15T08:14:23.046Z,94920.36
2019-01-15T08:17:11.144Z,94920.65
2019-01-15T08:19:39.737Z,94926.61
2019-01-15T08:22:08.414Z,94917.66
2019-01-15T08:24:37.007Z,94907.65
2019-01-15T08:27:05.669Z,94910.49
2019-01-15T08:29:34.265Z,94903.46
2019-01-15T08:32:02.834Z,94915.44
2019-01-15T08:37:05.886Z,94922.52
2019-01-15T08:39:34.462Z,94927.11
2019-01-15T08:42:03.046Z,94919.30
2019-01-15T08:44:31.948Z,94931.80
2019-01-15T08:47:00.539Z,94923.93
2019-01-15T08:49:30.168Z,94925.28
2019-01-15T08:51:58.758Z,94935.07
2019-01-15T08:54:27.468Z,94938.72
2019-01-15T08:56:56.096Z,94940.48
2019-01-15T08:59:24.683Z,94929.06
2019-01-15T09:01:53.276Z,94924.44
2019-01-15T09:04:21.910Z,94926.23
2019-01-15T09:06:50.815Z,94922.95
2019-01-15T09:09:19.415Z,94914.15
2019-01-15T09:11:48.303Z,94908.42
2019-01-15T09:14:16.900Z,94911.58
2019-01-15T09:16:46.044Z,94908.67
2019-01-15T09:22:02.704Z,94907.25
2019-01-15T09:24:31.505Z,94908.82
2019-01-15T09:27:00.161Z,94904.81
2019-01-15T09:32:03.238Z,94904.52
2019-01-15T09:34:31.838Z,94908.81
2019-01-15T09:37:00.483Z,94904.82
2019-01-15T09:39:29.079Z,94912.41
2019-01-15T09:41:57.655Z,94907.75
2019-01-15T09:44:26.302Z,94913.67
2019-01-15T09:46:55.109Z,94909.28
2019-01-15T09:49:23.724Z,94906.20
2019-01-15T09:51:52.591Z,94906.86
2019-01-15T09:54:21.154Z,94916.44
2019-01-15T09:56:49.814Z,94905.59
2019-01-15T09:59:18.394Z,94892.56
2019-01-15T10:01:47.235Z,94901.30
2019-01-15T10:04:15.862Z,94892.73
2019-01-15T10:06:44.431Z,94897.00
2019-01-15T10:09:12.992Z,94901.06
2019-01-15T10:11:41.576Z,94889.06
2019-01-15T10:14:10.539Z,94890.69
2019-01-15T10:16:39.262Z,94885.98
2019-01-15T10:19:07.834Z,94888.35
2019-01-15T10:21:55.672Z,94892.30
2019-01-15T10:24:24.336Z,94890.27
2019-01-15T10:32:46.211Z,94874.11
2019-01-15T10:35:44.277Z,94876.33
2019-01-15T10:38:12.865Z,94877.38
2019-01-15T10:40:41.731Z,94881.86
2019-01-15T10:43:10.352Z,94877.73
2019-01-15T10:45:38.991Z,94879.70
2019-01-15T10:48:07.580Z,94884.98
2019-01-15T10:50:36.235Z,94878.11
2019-01-15T10:53:24.205Z,94883.73
2019-01-15T10:55:52.841Z,94879.09
2019-01-15T10:58:21.428Z,94870.95
2019-01-15T11:00:50.090Z,94863.92
2019-01-15T11:03:18.681Z,94864.41
2019-01-15T11:05:47.431Z,94867.71
2019-01-15T11:08:16.190Z,94867.72
2019-01-15T11:10:44.731Z,94865.23
2019-01-15T11:13:13.381Z,94859.44
2019-01-15T11:15:43.474Z,94855.27
2019-01-15T11:18:12.486Z,94857.53
2019-01-15T11:20:41.588Z,94852.88
2019-01-15T11:23:10.184Z,94852.47
2019-01-15T11:31:20.319Z,94852.27
2019-01-15T11:33:49.184Z,94856.28
2019-01-15T11:36:17.813Z,94854.37
2019-01-15T11:38:46.394Z,94857.21
2019-01-15T11:41:15.313Z,94857.98
2019-01-15T11:43:43.900Z,94844.59
2019-01-15T11:46:12.478Z,94845.92
2019-01-15T11:48:41.043Z,94853.76
2019-01-15T11:51:09.654Z,94839.34
2019-01-15T11:53:38.218Z,94845.02
2019-01-15T11:58:41.087Z,94847.55
2019-01-15T12:01:13.447Z,94839.77
2019-01-15T12:04:01.285Z,94837.84
2019-01-15T12:06:49.237Z,94819.45
2019-01-15T12:09:36.925Z,94821.72
2019-01-15T12:12:43.793Z,94817.74
2019-01-15T12:15:31.519Z,94814.25
2019-01-15T12:18:19.619Z,94809.78
2019-01-15T12:21:07.283Z,94807.82
2019-01-15T12:23:54.998Z,94804.07
2019-01-15T12:26:42.651Z,94802.91
2019-01-15T12:29:30.248Z,94798.83
2019-01-15T12:32:17.959Z,94797.39
2019-01-15T12:35:05.657Z,94799.64
2019-01-15T12:37:53.368Z,94800.16
2019-01-15T12:40:31.432Z,94800.91
2019-01-15T12:43:19.099Z,94803.32
2019-01-15T12:46:06.717Z,94808.86
2019-01-15T12:48:54.362Z,94793.61
2019-01-15T12:51:42.219Z,94784.04
2019-01-15T12:54:18.755Z,94788.52
2019-01-15T12:57:06.384Z,94788.05
2019-01-15T12:59:54.214Z,94790.47
2019-01-15T13:02:41.812Z,94783.83
2019-01-15T13:05:29.583Z,94780.48
2019-01-15T13:08:17.183Z,94778.01
2019-01-15T13:11:05.070Z,94777.27
2019-01-15T13:13:52.666Z,94772.37
2019-01-15T13:16:40.299Z,94769.13
2019-01-15T13:19:28.115Z,94770.45
2019-01-15T13:22:04.573Z,94763.09
2019-01-15T13:24:53.287Z,94766.63
2019-01-15T13:27:38.947Z,94760.95
2019-01-15T13:30:31.040Z,94762.28
2019-01-15T13:33:18.636Z,94763.43
2019-01-15T13:36:06.255Z,94761.53
2019-01-15T13:38:53.874Z,94766.71
2019-01-15T13:44:33.891Z,94769.94
2019-01-15T13:47:21.482Z,94768.34
2019-01-15T13:50:00.896Z,94765.61
2019-01-15T13:52:48.511Z,94759.20
2019-01-15T13:55:36.695Z,94755.92
2019-01-15T13:58:25.074Z,94751.39
2019-01-15T14:00:59.658Z,94749.53
2019-01-15T14:03:47.520Z,94752.41
2019-01-15T14:06:27.740Z,94759.95
2019-01-15T14:11:59.028Z,94758.41
2019-01-15T14:14:49.936Z,94753.38
2019-01-15T14:17:38.038Z,94758.39
2019-01-15T14:20:26.821Z,94748.04
2019-01-15T14:23:04.617Z,94744.78
2019-01-15T14:25:52.295Z,94744.13
2019-01-15T14:28:26.561Z,94739.00
2019-01-15T14:31:14.253Z,94741.15
2019-01-15T14:34:21.166Z,94741.44
2019-01-15T14:37:09.049Z,94744.88
2019-01-15T14:39:56.822Z,94745.35
2019-01-15T14:42:45.871Z,94746.59
2019-01-15T14:45:34.431Z,94739.69
2019-01-15T14:48:22.175Z,94744.00
2019-01-15T14:51:09.938Z,94746.30
2019-01-15T14:53:57.564Z,94750.41
2019-01-15T14:56:45.262Z,94750.75
2019-01-15T14:59:33.205Z,94754.23
2019-01-15T15:02:13.651Z,94751.81
2019-01-15T15:05:01.625Z,94734.73
2019-01-15T15:10:46.050Z,94737.53
2019-01-15T15:19:21.246Z,94742.42
2019-01-15T15:22:08.958Z,94742.89
2019-01-15T15:24:56.743Z,94740.05
2019-01-15T15:27:44.319Z,94743.02
2019-01-15T15:30:33.801Z,94733.58
2019-01-15T15:33:22.655Z,94739.53
2019-01-15T15:36:10.659Z,94744.86
2019-01-15T15:38:58.481Z,94736.02
2019-01-15T15:41:46.526Z,94743.69
2019-01-15T15:44:34.084Z,94736.03
2019-01-15T15:47:21.918Z,94731.12
2019-01-15T15:50:09.625Z,94731.73
2019-01-15T15:52:57.484Z,94733.38
2019-01-15T15:55:38.537Z,94735.59
2019-01-15T15:58:26.571Z,94735.84
2019-01-15T16:01:03.643Z,94742.73
2019-01-15T16:03:51.233Z,94746.00
2019-01-15T16:06:38.833Z,94738.25
2019-01-15T16:09:27.032Z,94745.77
2019-01-15T16:12:15.082Z,94751.27
2019-01-15T16:15:02.754Z,94739.20
2019-01-15T16:17:50.623Z,94738.66
2019-01-15T16:20:27.481Z,94739.69
2019-01-15T16:23:15.124Z,94737.96
2019-01-15T16:26:02.769Z,94739.00
2019-01-15T16:28:50.405Z,94728.48
2019-01-15T16:31:38.261Z,94727.47
2019-01-15T16:34:26.073Z,94729.07
2019-01-15T16:37:13.837Z,94723.52
2019-01-15T16:39:54.399Z,94730.45
2019-01-15T16:42:42.290Z,94739.38
2019-01-15T16:45:30.394Z,94733.53
2019-01-15T16:48:08.011Z,94736.08
2019-01-15T16:50:55.551Z,94725.48
2019-01-15T16:53:32.652Z,94731.83
2019-01-15T16:56:20.309Z,94726.64
2019-01-15T16:59:08.179Z,94739.28
2019-01-15T17:01:44.680Z,94740.92
2019-01-15T17:04:26.230Z,94744.27
2019-01-15T17:07:13.896Z,94744.20
2019-01-15T17:10:01.830Z,94740.77
2019-01-15T17:12:49.684Z,94735.00
2019-01-15T17:18:18.576Z,94735.52
2019-01-15T17:21:06.159Z,94735.80
2019-01-15T17:23:53.790Z,94732.91
2019-01-15T17:26:41.605Z,94741.55
2019-01-15T17:29:18.951Z,94744.66
2019-01-15T17:31:57.927Z,94740.61
2019-01-15T17:34:37.277Z,94730.98
2019-01-15T17:37:25.353Z,94738.11
2019-01-15T17:40:13.199Z,94735.02
2019-01-15T17:43:01.045Z,94738.19
2019-01-15T17:45:49.199Z,94725.50
2019-01-15T17:48:36.932Z,94730.50
2019-01-15T17:51:24.529Z,94731.38
2019-01-15T17:54:12.168Z,94725.57
2019-01-15T17:56:59.204Z,94720.91
2019-01-15T17:59:46.805Z,94727.88
2019-01-15T18:02:34.417Z,94725.22
2019-01-15T18:05:23.661Z,94728.22
2019-01-15T18:08:11.252Z,94733.80
2019-01-15T18:11:18.097Z,94733.45
2019-01-15T18:14:03.911Z,94731.08
2019-01-15T18:16:51.754Z,94734.06
2019-01-15T18:19:29.431Z,94724.02
2019-01-15T18:22:39.344Z,94729.27
2019-01-15T18:25:27.193Z,94733.25
2019-01-15T18:31:15.906Z,94731.70
2019-01-15T18:33:54.310Z,94727.03
2019-01-15T18:36:35.550Z,94730.72
2019-01-15T18:39:24.984Z,94737.27
2019-01-15T18:42:12.618Z,94732.62
2019-01-15T18:45:00.270Z,94731.31
2019-01-15T18:47:48.418Z,94733.08
2019-01-15T18:50:34.190Z,94723.57
2019-01-15T18:53:21.786Z,94728.36
2019-01-15T18:56:09.381Z,94734.00
2019-01-15T18:58:56.985Z,94733.05
2019-01-15T19:01:44.619Z,94724.62
2019-01-15T19:04:32.204Z,94729.09
2019-01-15T19:07:19.827Z,94726.88
2019-01-15T19:10:07.417Z,94732.95
2019-01-15T19:12:55.071Z,94722.56
2019-01-15T19:15:44.232Z,94716.63
2019-01-15T19:18:31.914Z,94712.52
2019-01-15T19:21:19.623Z,94715.03
2019-01-15T19:24:07.420Z,94710.07
2019-01-15T19:26:47.877Z,94721.41
2019-01-15T19:29:37.277Z,94720.66
2019-01-15T19:32:24.992Z,94719.01
2019-01-15T19:35:12.601Z,94725.19
2019-01-15T19:38:00.195Z,94724.08
2019-01-15T19:40:49.632Z,94726.26
2019-01-15T19:43:37.523Z,94723.71
2019-01-15T19:46:25.432Z,94727.16
2019-01-15T19:49:03.343Z,94729.27
2019-01-15T19:51:50.997Z,94731.38
2019-01-15T19:54:41.940Z,94730.59
2019-01-15T19:57:29.787Z,94731.12
2019-01-15T20:03:29.809Z,94734.91
2019-01-15T20:06:19.510Z,94733.63
2019-01-15T20:09:07.338Z,94724.84
2019-01-15T20:11:55.008Z,94727.80
2019-01-15T20:17:33.108Z,94743.41
2019-01-15T20:20:20.953Z,94732.78
2019-01-15T20:23:08.734Z,94736.05
2019-01-15T20:25:56.481Z,94734.66
2019-01-15T20:28:44.333Z,94743.95
2019-01-15T20:31:22.365Z,94741.77
2019-01-15T20:34:10.342Z,94746.99
2019-01-15T20:36:57.937Z,94738.32
2019-01-15T20:39:45.722Z,94739.94
2019-01-15T20:45:38.724Z,94740.86
2019-01-15T20:48:26.686Z,94739.21
2019-01-15T20:51:14.267Z,94739.94
2019-01-15T20:54:01.921Z,94740.50
2019-01-15T20:56:49.751Z,94741.00
2019-01-15T20:59:37.502Z,94742.71
2019-01-15T21:02:15.284Z,94747.77
2019-01-15T21:05:02.932Z,94748.27
2019-01-15T21:07:50.792Z,94744.14
2019-01-15T21:10:39.671Z,94749.63
2019-01-15T21:13:27.543Z,94743.63
2019-01-15T21:16:15.209Z,94741.94
2019-01-15T21:19:02.785Z,94747.26
2019-01-15T21:21:50.673Z,94738.08
2019-01-15T21:24:30.128Z,94740.73
2019-01-15T21:27:17.710Z,94745.50
2019-01-15T21:29:54.862Z,94751.19
2019-01-15T21:32:42.472Z,94753.98
2019-01-15T21:35:30.398Z,94747.14
2019-01-15T21:38:18.009Z,94748.20
2019-01-15T21:41:05.595Z,94745.65
2019-01-15T21:43:53.221Z,94739.98
2019-01-15T21:46:40.900Z,94742.26
2019-01-15T21:49:28.549Z,94742.78
2019-01-15T21:52:16.268Z,94737.09
2019-01-15T21:55:03.870Z,94738.44
2019-01-15T21:57:51.747Z,94740.90
2019-01-15T22:00:39.340Z,94738.56
2019-01-15T22:03:26.948Z,94732.95
2019-01-15T22:06:14.532Z,94732.37
2019-01-15T22:08:55.354Z,94735.14
2019-01-15T22:11:42.934Z,94742.78
2019-01-15T22:14:30.565Z,94732.13
2019-01-15T22:17:18.242Z,94739.88
2019-01-15T22:20:05.831Z,94738.67
2019-01-15T22:22:53.438Z,94745.92
2019-01-15T22:25:40.923Z,94736.49
2019-01-15T22:28:28.560Z,94735.38
2019-01-15T22:31:16.168Z,94740.30
2019-01-15T22:34:03.798Z,94734.87
2019-01-15T22:36:39.657Z,94734.87
2019-01-15T22:39:46.751Z,94729.09
2019-01-15T22:42:34.348Z,94726.52
2019-01-15T22:45:30.046Z,94723.33
2019-01-15T22:48:17.894Z,94716.37
2019-01-15T22:51:05.811Z,94712.28
2019-01-15T22:54:03.627Z,94707.81
2019-01-15T22:56:39.884Z,94714.66
2019-01-15T22:59:27.486Z,94698.81
2019-01-15T23:02:15.089Z,94703.61
2019-01-15T23:04:52.284Z,94711.67
2019-01-15T23:07:40.133Z,94699.53
2019-01-15T23:10:28.432Z,94701.20
2019-01-15T23:13:16.110Z,94695.13
2019-01-15T23:16:03.687Z,94686.90
2019-01-15T23:18:51.297Z,94692.47
2019-01-15T23:21:31.491Z,94691.36
2019-01-15T23:24:19.098Z,94700.25
2019-01-15T23:27:06.701Z,94688.31
2019-01-15T23:29:54.327Z,94694.00
2019-01-15T23:32:44.686Z,94692.95
2019-01-15T23:35:32.307Z,94690.11
2019-01-15T23:38:19.923Z,94686.22
2019-01-15T23:41:07.522Z,94688.07
2019-01-15T23:43:55.382Z,94685.23
2019-01-15T23:46:43.058Z,94688.05
2019-01-15T23:49:23.276Z,94676.58
2019-01-15T23:52:00.124Z,94672.77
2019-01-15T23:54:47.724Z,94667.89
2019-01-15T23:57:35.361Z,94666.39
